Time;durP1;ratioP1;P1;durP2;ratioP2;P2;SDS_P1;SDS_P2;PMS_P1;PMS_P2;Temp;Humidity;BMP_temperature;BMP_pressure;BME280_temperature;BME280_humidity;BME280_pressure;Samples;Min_cycle;Max_cycle;Signal;HPM_P1;HPM_P2
2023/05/25 00:00:10;;;;;;;4.40;2.60;;;7.10;99.90;6.70;101309.00;;;;4986192;28;107907;-71
2023/05/25 00:02:36;;;;;;;2.70;2.03;;;6.90;99.90;6.70;101299.00;;;;4987596;28;89549;-71
2023/05/25 00:05:03;;;;;;;3.50;2.30;;;6.80;99.90;6.60;101299.00;;;;4989027;28;89615;-72
2023/05/25 00:07:28;;;;;;;3.57;2.10;;;6.80;99.90;6.60;101306.00;;;;4989153;28;87906;-72
2023/05/25 00:09:54;;;;;;;2.60;2.40;;;6.80;99.90;6.50;101301.00;;;;4984493;28;107701;-70
2023/05/25 00:12:20;;;;;;;4.37;2.90;;;6.80;99.90;6.50;101294.00;;;;4984014;28;116459;-71
2023/05/25 00:14:45;;;;;;;3.73;2.13;;;7.00;99.90;6.50;101298.00;;;;4986143;28;117089;-70
2023/05/25 00:17:11;;;;;;;3.57;2.10;;;6.80;99.90;6.40;101299.00;;;;4986590;28;110384;-71
2023/05/25 00:19:43;;;;;;;3.60;2.20;;;6.60;99.90;6.30;101306.00;;;;4989191;28;87080;-70
2023/05/25 00:22:10;;;;;;;2.97;2.67;;;6.50;99.90;6.20;101289.00;;;;4984838;28;88231;-70
2023/05/25 00:24:37;;;;;;;3.83;2.50;;;6.40;99.90;6.10;101301.00;;;;4986423;28;116419;-71
2023/05/25 00:27:03;;;;;;;3.77;2.40;;;6.80;99.90;6.10;101305.00;;;;4986413;28;90419;-70
2023/05/25 00:29:29;;;;;;;3.40;2.77;;;6.30;99.90;6.00;101310.00;;;;4986239;28;88307;-71
2023/05/25 00:31:55;;;;;;;5.07;2.03;;;6.40;99.90;6.00;101306.00;;;;4987257;28;89940;-71
2023/05/25 00:34:21;;;;;;;2.80;2.23;;;6.50;99.90;5.90;101310.00;;;;4989045;28;90248;-71
2023/05/25 00:36:47;;;;;;;4.20;2.40;;;6.10;99.90;5.90;101312.00;;;;4986316;27;100884;-71
2023/05/25 00:39:17;;;;;;;2.83;2.60;;;6.00;99.90;5.90;101308.00;;;;4988103;28;96887;-72
2023/05/25 00:41:47;;;;;;;6.73;2.63;;;6.10;99.90;6.00;101309.00;;;;4983604;28;111784;-71
2023/05/25 00:44:14;;;;;;;3.23;2.70;;;6.10;99.90;6.00;101305.00;;;;4990592;28;103223;-71
2023/05/25 00:46:49;;;;;;;9.03;2.67;;;6.10;99.90;6.00;101308.00;;;;4991312;28;88272;-71
2023/05/25 00:49:25;;;;;;;4.23;2.33;;;6.20;99.90;5.90;101299.00;;;;4985439;28;87902;-71
2023/05/25 00:51:52;;;;;;;2.63;1.93;;;6.10;99.90;5.90;101304.00;;;;4985707;27;88843;-71
2023/05/25 00:54:18;;;;;;;2.90;2.40;;;6.00;99.90;5.80;101296.00;;;;4985859;28;119557;-71
2023/05/25 00:56:56;;;;;;;2.20;2.00;;;6.00;99.90;5.70;101300.00;;;;4987529;27;87975;-71
2023/05/25 00:59:34;;;;;;;3.40;2.50;;;5.90;99.90;5.70;101292.00;;;;4990216;28;87930;-71
2023/05/25 01:02:05;;;;;;;3.70;2.67;;;5.90;99.90;5.70;101302.00;;;;4985701;28;89502;-71
2023/05/25 01:04:35;;;;;;;3.60;2.33;;;5.80;99.90;5.70;101299.00;;;;4990764;28;88133;-71
2023/05/25 01:07:03;;;;;;;14.73;2.03;;;5.80;99.90;5.60;101303.00;;;;4987689;27;87979;-71
2023/05/25 01:09:33;;;;;;;7.17;2.40;;;5.80;99.90;5.60;101304.00;;;;4987892;28;87032;-71
2023/05/25 01:12:01;;;;;;;3.27;2.27;;;5.80;99.90;5.70;101301.00;;;;4987401;28;88440;-71
2023/05/25 01:14:27;;;;;;;2.67;1.40;;;5.70;99.90;5.60;101304.00;;;;4986165;28;88024;-71
2023/05/25 01:16:57;;;;;;;3.10;2.40;;;6.30;99.90;5.60;101306.00;;;;4986465;28;88717;-71
2023/05/25 01:19:24;;;;;;;2.33;1.93;;;5.80;99.90;5.60;101298.00;;;;4986592;28;87971;-73
2023/05/25 01:22:12;;;;;;;3.90;2.00;;;5.80;99.90;5.60;101310.00;;;;4973565;28;88043;-72
2023/05/25 01:24:51;;;;;;;2.03;1.63;;;5.70;99.90;5.60;101311.00;;;;4986706;28;87748;-72
2023/05/25 01:27:29;;;;;;;3.57;2.20;;;5.90;99.90;5.60;101297.00;;;;4982742;28;97887;-72
2023/05/25 01:29:58;;;;;;;10.23;2.23;;;5.70;99.90;5.50;101305.00;;;;4986267;28;87777;-71
2023/05/25 01:32:25;;;;;;;9.20;2.27;;;6.00;99.90;5.40;101298.00;;;;4988866;28;109447;-72
2023/05/25 01:34:54;;;;;;;2.03;1.73;;;5.70;99.90;5.40;101307.00;;;;4983949;27;88761;-72
2023/05/25 01:37:22;;;;;;;3.10;2.03;;;5.60;99.90;5.30;101295.00;;;;4990751;28;88976;-72
2023/05/25 01:39:48;;;;;;;4.57;2.00;;;5.50;99.90;5.30;101305.00;;;;4984517;28;87890;-72
2023/05/25 01:42:14;;;;;;;4.73;2.70;;;5.50;99.90;5.20;101306.00;;;;4984051;28;118500;-72
2023/05/25 01:44:40;;;;;;;3.20;1.67;;;5.40;99.90;5.10;101300.00;;;;4985191;28;89073;-72
2023/05/25 01:47:15;;;;;;;2.87;1.60;;;5.30;99.90;5.10;101296.00;;;;4983468;28;87826;-72
2023/05/25 01:50:12;;;;;;;3.27;2.63;;;5.30;99.90;5.00;101302.00;;;;4990117;28;88067;-72
2023/05/25 01:52:44;;;;;;;6.43;2.53;;;5.30;99.90;5.00;101296.00;;;;4982320;27;109309;-72
2023/05/25 01:55:14;;;;;;;5.17;2.50;;;5.20;99.90;5.00;101304.00;;;;4988966;28;88237;-72
2023/05/25 01:57:44;;;;;;;2.53;1.83;;;5.20;99.90;5.00;101306.00;;;;4984787;27;88008;-72
2023/05/25 02:00:12;;;;;;;2.30;1.73;;;5.20;99.90;5.10;101311.00;;;;4984980;28;97451;-72
2023/05/25 02:02:41;;;;;;;2.03;1.83;;;5.20;99.90;5.10;101302.00;;;;4983634;28;111580;-72
2023/05/25 02:05:09;;;;;;;3.07;1.90;;;5.30;99.90;5.10;101304.00;;;;4984104;28;88436;-73
2023/05/25 02:07:35;;;;;;;7.20;2.50;;;5.30;99.90;5.10;101300.00;;;;4988865;28;88645;-72
2023/05/25 02:10:02;;;;;;;3.93;2.27;;;5.20;99.90;5.00;101307.00;;;;4985433;28;88068;-72
2023/05/25 02:12:27;;;;;;;2.40;2.20;;;5.20;99.90;4.90;101307.00;;;;4981309;28;87980;-71
2023/05/25 02:14:53;;;;;;;2.60;2.17;;;5.10;99.90;4.90;101304.00;;;;4985064;27;117656;-72
2023/05/25 02:17:19;;;;;;;2.57;2.00;;;5.10;99.90;4.90;101298.00;;;;4982614;28;110747;-72
2023/05/25 02:19:47;;;;;;;2.57;1.97;;;5.10;99.90;4.90;101298.00;;;;4981206;28;87980;-72
2023/05/25 02:22:13;;;;;;;4.33;2.27;;;5.10;99.90;4.90;101306.00;;;;4981947;28;87952;-72
2023/05/25 02:24:39;;;;;;;4.03;2.00;;;5.00;99.90;4.90;101292.00;;;;4989029;28;106325;-72
2023/05/25 02:27:06;;;;;;;5.73;2.73;;;5.10;99.90;4.90;101296.00;;;;4983075;28;88826;-72
2023/05/25 02:29:32;;;;;;;4.53;2.17;;;5.00;99.90;4.80;101306.00;;;;4985152;28;88111;-72
2023/05/25 02:31:58;;;;;;;5.17;2.13;;;5.10;99.90;4.90;101306.00;;;;4986053;28;89165;-72
2023/05/25 02:34:24;;;;;;;4.50;2.60;;;5.10;99.90;4.90;101299.00;;;;4985831;28;118308;-72
2023/05/25 02:36:50;;;;;;;4.37;1.90;;;5.10;99.90;4.90;101295.00;;;;4987217;28;88060;-72
2023/05/25 02:39:15;;;;;;;2.37;2.17;;;5.10;99.90;4.90;101296.00;;;;4983293;28;109287;-72
2023/05/25 02:41:41;;;;;;;5.07;2.37;;;5.10;99.90;4.90;101293.00;;;;4983271;28;118323;-72
2023/05/25 02:44:07;;;;;;;2.57;2.10;;;5.00;99.90;4.90;101297.00;;;;4981773;28;118441;-72
2023/05/25 02:46:33;;;;;;;2.43;2.23;;;5.10;99.90;4.80;101297.00;;;;4982236;28;107423;-72
2023/05/25 02:48:59;;;;;;;3.13;2.27;;;5.10;99.90;4.80;101302.00;;;;4980187;28;87434;-72
2023/05/25 02:51:27;;;;;;;4.33;1.93;;;5.10;99.90;4.80;101297.00;;;;4982467;27;89447;-72
2023/05/25 02:53:52;;;;;;;4.90;2.43;;;5.30;99.90;4.80;101306.00;;;;4983531;28;88086;-72
2023/05/25 02:56:18;;;;;;;4.00;2.40;;;5.00;99.90;4.70;101301.00;;;;4982491;28;110423;-72
2023/05/25 02:58:44;;;;;;;4.33;2.40;;;4.90;99.90;4.70;101306.00;;;;4982439;28;98677;-72
2023/05/25 03:01:09;;;;;;;3.70;1.50;;;5.30;99.90;4.60;101304.00;;;;4981566;28;118841;-72
2023/05/25 03:03:38;;;;;;;4.10;2.17;;;6.30;99.90;4.60;101303.00;;;;4990168;28;87925;-72
2023/05/25 03:06:04;;;;;;;3.00;1.83;;;4.90;99.90;4.60;101315.00;;;;4982766;28;108984;-72
2023/05/25 03:08:30;;;;;;;5.20;2.13;;;5.10;99.90;4.70;101318.00;;;;4987531;27;108428;-72
2023/05/25 03:10:56;;;;;;;3.00;2.60;;;4.80;99.90;4.60;101315.00;;;;4986742;28;116180;-72
2023/05/25 03:13:21;;;;;;;3.97;2.23;;;4.80;99.90;4.60;101317.00;;;;4984578;28;115896;-72
2023/05/25 03:15:47;;;;;;;3.00;2.60;;;4.80;99.90;4.60;101326.00;;;;4988733;28;87784;-72
2023/05/25 03:18:12;;;;;;;4.00;2.70;;;4.80;99.90;4.70;101334.00;;;;4985853;27;109478;-72
2023/05/25 03:20:40;;;;;;;3.40;2.10;;;4.90;99.90;4.70;101333.00;;;;4985145;28;118896;-72
2023/05/25 03:23:05;;;;;;;3.10;1.97;;;4.90;99.90;4.70;101319.00;;;;4988942;28;89196;-72
2023/05/25 03:25:31;;;;;;;2.17;2.03;;;4.90;99.90;4.60;101319.00;;;;4990052;28;110458;-72
2023/05/25 03:27:57;;;;;;;3.40;2.30;;;4.90;99.90;4.60;101312.00;;;;4988337;28;108426;-72
2023/05/25 03:30:23;;;;;;;3.67;2.37;;;4.80;99.90;4.60;101324.00;;;;4989544;27;88226;-72
2023/05/25 03:32:48;;;;;;;2.03;1.93;;;4.80;99.90;4.60;101326.00;;;;4988269;27;116749;-72
2023/05/25 03:35:14;;;;;;;2.20;2.00;;;5.30;99.90;4.50;101330.00;;;;4988191;28;109651;-72
2023/05/25 03:37:40;;;;;;;4.03;2.20;;;4.80;99.90;4.50;101329.00;;;;4986320;28;87072;-72
2023/05/25 03:40:08;;;;;;;4.83;3.10;;;4.70;99.90;4.50;101336.00;;;;4986066;27;117225;-72
2023/05/25 03:42:34;;;;;;;1.63;1.53;;;4.70;99.90;4.50;101331.00;;;;4989103;28;88294;-72
2023/05/25 03:45:00;;;;;;;1.77;1.67;;;4.70;99.90;4.50;101340.00;;;;4989347;28;89028;-72
2023/05/25 03:47:25;;;;;;;1.90;1.77;;;4.70;99.90;4.60;101339.00;;;;4986213;28;109345;-72
2023/05/25 03:49:51;;;;;;;4.20;2.83;;;4.70;99.90;4.60;101341.00;;;;4989064;28;115492;-72
2023/05/25 03:52:16;;;;;;;3.53;1.97;;;5.00;99.90;4.70;101343.00;;;;4986306;27;117088;-72
2023/05/25 03:54:42;;;;;;;3.57;2.70;;;4.80;99.90;4.70;101347.00;;;;4984566;28;88172;-72
2023/05/25 03:57:17;;;;;;;4.37;2.37;;;4.90;99.90;4.80;101340.00;;;;4986195;28;109133;-72
2023/05/25 03:59:43;;;;;;;5.37;1.97;;;5.00;99.90;4.90;101340.00;;;;4985755;28;117791;-72
2023/05/25 04:02:08;;;;;;;4.77;2.17;;;5.10;99.90;5.10;101341.00;;;;4985491;28;114808;-72
2023/05/25 04:04:34;;;;;;;2.73;2.17;;;5.20;99.90;5.10;101344.00;;;;4987543;28;110595;-72
2023/05/25 04:07:00;;;;;;;4.23;2.83;;;5.30;99.90;5.20;101348.00;;;;4984964;28;87884;-72
2023/05/25 04:09:26;;;;;;;2.70;1.60;;;5.30;99.90;5.30;101359.00;;;;4987213;28;90350;-72
2023/05/25 04:11:51;;;;;;;7.07;2.57;;;5.40;99.90;5.40;101349.00;;;;4990202;28;117466;-71
2023/05/25 04:14:19;;;;;;;2.03;1.43;;;6.10;99.90;5.50;101360.00;;;;4986309;28;109654;-71
2023/05/25 04:16:45;;;;;;;2.07;1.93;;;5.60;99.90;5.60;101357.00;;;;4988106;27;88006;-71
2023/05/25 04:19:11;;;;;;;3.23;2.10;;;5.70;99.90;5.70;101369.00;;;;4983605;27;118453;-72
2023/05/25 04:21:36;;;;;;;5.70;3.13;;;5.80;99.90;5.80;101363.00;;;;4987106;28;116661;-71
2023/05/25 04:24:02;;;;;;;5.70;2.67;;;6.40;99.90;6.00;101361.00;;;;4988147;28;110394;-72
2023/05/25 04:26:28;;;;;;;3.50;3.00;;;6.10;99.90;6.10;101352.00;;;;4984275;28;87260;-71
2023/05/25 04:28:55;;;;;;;3.47;2.37;;;6.20;99.90;6.30;101366.00;;;;4984692;27;117301;-71
2023/05/25 04:31:21;;;;;;;2.97;1.77;;;6.30;99.90;6.40;101361.00;;;;4981609;27;100101;-71
2023/05/25 04:33:46;;;;;;;5.13;2.50;;;6.40;99.90;6.50;101373.00;;;;4982434;28;109296;-72
2023/05/25 04:36:13;;;;;;;6.10;2.70;;;6.60;99.90;6.60;101371.00;;;;4984151;28;107472;-72
2023/05/25 04:38:40;;;;;;;5.30;2.00;;;6.80;99.90;6.70;101376.00;;;;4983146;28;88061;-71
2023/05/25 04:41:06;;;;;;;6.27;3.57;;;6.80;99.90;6.80;101376.00;;;;4981451;28;90093;-71
2023/05/25 04:43:32;;;;;;;4.60;3.03;;;6.90;99.90;6.90;101367.00;;;;4984761;27;104862;-71
2023/05/25 04:45:58;;;;;;;2.57;2.17;;;7.00;99.90;7.00;101367.00;;;;4983290;28;110316;-72
2023/05/25 04:48:27;;;;;;;3.47;2.23;;;7.60;99.90;7.20;101369.00;;;;4982142;28;107634;-71
2023/05/25 04:50:54;;;;;;;2.77;1.93;;;7.70;99.90;7.30;101368.00;;;;4983838;27;88534;-71
2023/05/25 04:53:21;;;;;;;2.27;1.87;;;7.70;99.90;7.40;101375.00;;;;4981371;28;87685;-72
2023/05/25 04:55:48;;;;;;;2.37;2.17;;;7.50;99.90;7.60;101372.00;;;;4982677;28;87915;-72
2023/05/25 04:58:14;;;;;;;3.73;2.23;;;7.70;99.90;7.80;101369.00;;;;4979179;27;90003;-71
2023/05/25 05:00:40;;;;;;;3.93;2.80;;;7.80;99.90;7.90;101368.00;;;;4982179;27;89488;-71
2023/05/25 05:03:05;;;;;;;7.77;2.33;;;8.00;99.90;8.10;101373.00;;;;4984324;28;96891;-71
2023/05/25 05:05:31;;;;;;;2.80;2.57;;;8.10;99.90;8.30;101371.00;;;;4988552;28;108580;-71
2023/05/25 05:07:57;;;;;;;3.33;2.97;;;8.30;99.90;8.40;101368.00;;;;4982238;28;117279;-71
2023/05/25 05:10:23;;;;;;;5.57;2.40;;;8.40;99.90;8.70;101373.00;;;;4982008;28;116733;-71
2023/05/25 05:12:48;;;;;;;4.13;2.73;;;8.60;99.90;8.90;101373.00;;;;4979524;28;109494;-71
2023/05/25 05:15:14;;;;;;;3.57;2.97;;;8.80;99.90;9.10;101373.00;;;;4983528;28;109590;-72
2023/05/25 05:17:40;;;;;;;4.13;2.27;;;9.10;99.90;9.30;101370.00;;;;4982940;28;116875;-71
2023/05/25 05:20:07;;;;;;;10.60;3.43;;;9.30;99.90;9.60;101378.00;;;;4980583;28;87908;-71
2023/05/25 05:22:33;;;;;;;5.23;2.83;;;9.50;99.90;9.80;101376.00;;;;4981701;28;89195;-71
2023/05/25 05:24:59;;;;;;;2.67;2.47;;;9.70;99.90;10.00;101374.00;;;;4983206;28;87998;-72
2023/05/25 05:27:27;;;;;;;2.87;2.40;;;9.90;99.90;10.20;101368.00;;;;4983839;28;89423;-71
2023/05/25 05:29:53;;;;;;;6.63;3.13;;;10.20;99.90;10.50;101381.00;;;;4983329;27;88300;-71
2023/05/25 05:32:18;;;;;;;5.60;2.77;;;10.40;99.90;10.70;101378.00;;;;4982791;28;87736;-70
2023/05/25 05:34:44;;;;;;;4.07;3.23;;;10.60;99.90;10.80;101387.00;;;;4981940;28;108666;-69
2023/05/25 05:37:10;;;;;;;5.60;3.13;;;10.80;99.90;11.00;101388.00;;;;4978707;28;117342;-69
2023/05/25 05:39:35;;;;;;;4.90;3.67;;;11.00;99.90;11.20;101385.00;;;;4981919;28;88636;-71
2023/05/25 05:42:01;;;;;;;4.57;2.90;;;11.20;99.90;11.40;101387.00;;;;4978690;28;109982;-69
2023/05/25 05:44:27;;;;;;;3.50;2.40;;;11.30;99.90;11.60;101388.00;;;;4984984;28;87862;-70
2023/05/25 05:46:58;;;;;;;4.73;2.23;;;11.50;99.90;11.80;101391.00;;;;4980192;28;89325;-70
2023/05/25 05:49:28;;;;;;;6.37;2.57;;;11.70;99.90;11.90;101398.00;;;;4980772;28;89599;-69
2023/05/25 05:51:54;;;;;;;3.00;2.70;;;11.90;99.90;12.10;101404.00;;;;4979268;27;87754;-71
2023/05/25 05:54:20;;;;;;;2.93;2.13;;;12.10;99.90;12.30;101415.00;;;;4981754;28;88134;-72
2023/05/25 05:56:45;;;;;;;5.50;3.40;;;12.30;99.90;12.50;101416.00;;;;4985448;27;117819;-72
2023/05/25 05:59:11;;;;;;;3.17;1.93;;;12.40;99.90;12.70;101417.00;;;;4981433;28;117506;-71
2023/05/25 06:01:37;;;;;;;9.13;2.67;;;12.60;99.90;13.00;101412.00;;;;4983901;28;111475;-70
2023/05/25 06:04:06;;;;;;;2.30;2.03;;;12.90;99.90;13.20;101417.00;;;;4980655;28;109203;-72
2023/05/25 06:06:33;;;;;;;2.37;2.17;;;13.10;99.90;13.40;101424.00;;;;4981405;28;87957;-72
2023/05/25 06:09:02;;;;;;;3.37;2.80;;;13.30;99.90;13.50;101438.00;;;;4981184;28;88536;-71
2023/05/25 06:11:28;;;;;;;3.83;2.03;;;13.50;99.90;13.70;101426.00;;;;4981392;28;89010;-72
2023/05/25 06:13:54;;;;;;;3.37;2.20;;;13.60;99.90;13.90;101430.00;;;;4987690;28;87865;-70
2023/05/25 06:16:19;;;;;;;4.30;2.63;;;13.90;99.90;14.00;101443.00;;;;4980451;28;89119;-72
2023/05/25 06:18:45;;;;;;;2.57;2.17;;;14.00;99.90;14.20;101430.00;;;;4980332;28;117280;-72
2023/05/25 06:21:11;;;;;;;5.83;2.30;;;14.10;99.90;14.40;101441.00;;;;4983769;28;87935;-71
2023/05/25 06:23:36;;;;;;;4.07;2.47;;;14.30;99.90;14.50;101452.00;;;;4995005;27;109170;-70
2023/05/25 06:26:05;;;;;;;5.25;3.17;;;14.50;99.90;14.70;101441.00;;;;4981033;28;116043;-71
2023/05/25 06:28:32;;;;;;;5.77;2.30;;;14.60;99.90;14.80;101449.00;;;;4981237;27;110283;-71
2023/05/25 06:30:57;;;;;;;3.83;3.10;;;14.70;99.90;14.90;101452.00;;;;4981990;28;110773;-71
2023/05/25 06:33:23;;;;;;;2.92;2.40;;;14.90;99.90;15.00;101452.00;;;;4980226;28;109014;-71
2023/05/25 06:35:49;;;;;;;9.68;2.50;;;15.00;99.90;15.10;101447.00;;;;4979992;28;117128;-70
2023/05/25 06:38:15;;;;;;;3.75;2.53;;;15.10;99.90;15.20;101451.00;;;;4984827;28;88135;-71
2023/05/25 06:40:40;;;;;;;4.68;2.42;;;15.20;99.90;15.40;101443.00;;;;4980726;28;88059;-71
2023/05/25 06:43:06;;;;;;;3.03;2.25;;;15.30;99.90;15.50;101449.00;;;;4983471;28;109000;-71
2023/05/25 06:45:32;;;;;;;4.32;2.58;;;15.50;99.90;15.70;101445.00;;;;4982081;28;118156;-70
2023/05/25 06:47:57;;;;;;;3.92;2.28;;;15.60;99.90;16.00;101443.00;;;;4984696;28;117105;-72
2023/05/25 06:50:23;;;;;;;3.75;2.90;;;15.90;99.90;16.30;101443.00;;;;4984137;28;109944;-71
2023/05/25 06:52:49;;;;;;;2.90;2.47;;;16.20;99.90;16.40;101425.00;;;;4983685;28;107522;-73
2023/05/25 06:55:15;;;;;;;5.90;2.72;;;16.40;99.90;16.50;101434.00;;;;4982432;28;89589;-73
2023/05/25 06:57:42;;;;;;;4.80;3.05;;;16.40;99.90;16.60;101439.00;;;;4981588;27;104869;-70
2023/05/25 07:00:11;;;;;;;4.57;2.40;;;16.50;99.90;16.70;101433.00;;;;4986222;28;88840;-71
2023/05/25 07:02:38;;;;;;;2.40;2.20;;;16.70;99.90;17.00;101434.00;;;;4989963;28;87997;-69
2023/05/25 07:05:05;;;;;;;1.67;1.55;;;16.90;99.90;17.30;101431.00;;;;4985148;28;88062;-69
2023/05/25 07:07:32;;;;;;;2.08;1.65;;;17.20;99.90;17.60;101445.00;;;;4983106;28;88169;-70
2023/05/25 07:09:57;;;;;;;3.25;2.08;;;17.50;99.00;17.90;101442.00;;;;4982644;28;109993;-69
2023/05/25 07:12:23;;;;;;;2.13;1.90;;;17.70;98.30;18.10;101437.00;;;;4985643;28;109099;-72
2023/05/25 07:14:49;;;;;;;1.77;1.50;;;18.00;97.90;18.40;101432.00;;;;4984372;28;117281;-69
2023/05/25 07:17:15;;;;;;;3.22;1.40;;;18.20;97.20;18.70;101433.00;;;;4983425;28;87954;-73
2023/05/25 07:19:43;;;;;;;2.20;1.98;;;18.50;96.60;18.90;101432.00;;;;4984592;28;87894;-72
2023/05/25 07:22:09;;;;;;;5.38;1.45;;;18.70;96.00;19.20;101429.00;;;;4984523;28;88068;-72
2023/05/25 07:24:35;;;;;;;4.65;2.30;;;19.00;95.40;19.50;101432.00;;;;4982361;28;89041;-70
2023/05/25 07:27:02;;;;;;;3.47;2.05;;;19.30;94.60;19.80;101437.00;;;;4981828;27;111883;-71
2023/05/25 07:29:28;;;;;;;2.60;1.90;;;19.60;93.40;19.90;101434.00;;;;4983247;28;87793;-70
2023/05/25 07:31:53;;;;;;;2.05;1.45;;;19.80;91.80;20.00;101443.00;;;;4982792;28;97010;-71
2023/05/25 07:34:19;;;;;;;2.40;1.55;;;19.90;90.80;20.10;101448.00;;;;4985066;28;117683;-70
2023/05/25 07:36:45;;;;;;;2.88;1.65;;;20.00;90.10;20.30;101444.00;;;;4983875;28;88920;-72
2023/05/25 07:39:11;;;;;;;1.60;1.50;;;20.20;90.00;20.50;101442.00;;;;4985405;28;94478;-70
2023/05/25 07:41:37;;;;;;;2.28;1.33;;;20.40;88.30;20.70;101441.00;;;;4982403;28;109930;-71
2023/05/25 07:44:03;;;;;;;2.78;1.65;;;20.50;84.90;20.80;101440.00;;;;4982913;28;88256;-73
2023/05/25 07:46:29;;;;;;;3.92;2.35;;;20.70;83.70;21.00;101447.00;;;;4984242;28;87976;-71
2023/05/25 07:48:57;;;;;;;4.95;1.75;;;20.90;81.80;21.00;101440.00;;;;4981291;28;104312;-72
2023/05/25 07:51:25;;;;;;;1.65;1.42;;;21.00;78.10;21.10;101438.00;;;;4986168;27;87967;-70
2023/05/25 07:53:52;;;;;;;4.22;2.10;;;21.00;77.70;21.20;101447.00;;;;4988798;28;88187;-73
2023/05/25 07:56:18;;;;;;;5.50;1.70;;;21.10;76.20;21.30;101441.00;;;;4982024;27;88716;-73
2023/05/25 07:58:44;;;;;;;2.97;1.95;;;21.30;74.80;21.30;101437.00;;;;4983353;28;104823;-70
2023/05/25 08:01:10;;;;;;;3.47;1.65;;;21.30;73.20;21.30;101448.00;;;;4987426;28;109108;-71
2023/05/25 08:03:35;;;;;;;4.13;1.70;;;21.30;73.00;21.30;101433.00;;;;4983218;28;117588;-71
2023/05/25 08:06:01;;;;;;;2.47;1.80;;;21.30;71.10;21.20;101443.00;;;;4981707;28;118563;-71
2023/05/25 08:08:27;;;;;;;5.25;1.50;;;21.20;70.60;21.20;101452.00;;;;4983278;28;110489;-71
2023/05/25 08:10:52;;;;;;;3.22;2.03;;;21.20;71.10;21.30;101453.00;;;;4984302;28;109858;-71
2023/05/25 08:13:18;;;;;;;3.00;1.95;;;21.30;71.20;21.40;101445.00;;;;4983275;28;103849;-72
2023/05/25 08:15:44;;;;;;;5.05;1.83;;;21.40;69.20;21.40;101451.00;;;;4988660;28;118242;-74
2023/05/25 08:18:09;;;;;;;3.47;1.65;;;21.40;69.20;21.70;101453.00;;;;4972852;28;108369;-71
2023/05/25 08:20:35;;;;;;;7.10;1.52;;;21.50;69.60;22.00;101455.00;;;;4983691;28;107824;-71
2023/05/25 08:23:01;;;;;;;4.55;1.65;;;21.80;69.10;22.20;101450.00;;;;4987388;28;88509;-72
2023/05/25 08:25:26;;;;;;;2.97;1.75;;;22.00;67.00;22.20;101453.00;;;;4979063;28;117216;-72
2023/05/25 08:27:52;;;;;;;2.00;1.15;;;22.00;65.30;22.20;101442.00;;;;4981733;27;99540;-72
2023/05/25 08:30:18;;;;;;;4.85;1.73;;;22.10;65.80;22.40;101453.00;;;;4982453;28;87057;-71
2023/05/25 08:32:44;;;;;;;2.25;1.48;;;22.20;65.80;22.70;101440.00;;;;4982420;28;87961;-74
2023/05/25 08:35:09;;;;;;;2.30;1.35;;;22.50;65.20;22.90;101452.00;;;;4984054;28;88711;-74
2023/05/25 08:37:35;;;;;;;3.75;1.55;;;22.70;64.90;23.30;101443.00;;;;4983978;28;88803;-73
2023/05/25 08:40:01;;;;;;;6.75;1.90;;;22.90;63.60;23.60;101443.00;;;;4982927;28;108903;-71
2023/05/25 08:42:27;;;;;;;7.30;1.63;;;23.30;62.10;23.80;101441.00;;;;4980850;28;107990;-74
2023/05/25 08:44:53;;;;;;;2.85;1.65;;;23.50;60.70;24.10;101445.00;;;;4986908;28;118279;-72
2023/05/25 08:47:22;;;;;;;3.05;1.35;;;23.80;59.90;24.40;101448.00;;;;4986336;28;110395;-71
2023/05/25 08:49:48;;;;;;;3.20;1.55;;;24.00;58.80;24.60;101456.00;;;;4984862;28;87489;-69
2023/05/25 08:52:20;;;;;;;1.65;1.02;;;24.30;58.00;24.80;101444.00;;;;4982226;28;88031;-70
2023/05/25 08:54:50;;;;;;;4.45;1.38;;;24.50;56.60;24.90;101455.00;;;;4983150;28;110905;-70
2023/05/25 08:57:39;;;;;;;3.67;0.98;;;24.60;55.60;25.00;101453.00;;;;4984281;27;88121;-72
2023/05/25 09:00:11;;;;;;;2.50;1.77;;;24.70;55.60;25.10;101456.00;;;;4981978;28;87882;-74
2023/05/25 09:03:06;;;;;;;4.05;1.27;;;24.80;54.70;25.20;101447.00;;;;4981379;27;90139;-75
2023/05/25 09:05:36;;;;;;;2.55;1.25;;;25.00;53.10;25.10;101458.00;;;;4986773;28;88671;-73
2023/05/25 09:08:07;;;;;;;4.72;2.28;;;24.90;52.00;25.00;101456.00;;;;4981877;28;108619;-75
2023/05/25 09:10:35;;;;;;;4.03;1.45;;;24.90;52.20;25.00;101459.00;;;;4979920;27;87722;-78
2023/05/25 09:13:01;;;;;;;2.60;1.30;;;24.80;52.40;25.20;101460.00;;;;4980295;28;94958;-74
2023/05/25 09:15:27;;;;;;;2.67;1.33;;;25.00;52.60;25.50;101460.00;;;;4979442;28;88831;-75
2023/05/25 09:17:53;;;;;;;5.00;1.45;;;25.10;52.30;25.70;101467.00;;;;4978478;28;108979;-75
2023/05/25 09:20:19;;;;;;;3.55;1.63;;;25.40;51.70;26.00;101459.00;;;;4981656;28;103957;-75
2023/05/25 09:22:46;;;;;;;8.23;1.65;;;25.60;51.30;26.20;101467.00;;;;4983312;28;88362;-75
2023/05/25 09:25:16;;;;;;;5.97;1.40;;;25.90;50.80;26.40;101468.00;;;;4983791;27;88257;-76
2023/05/25 09:27:42;;;;;;;3.00;1.50;;;26.30;50.20;26.50;101466.00;;;;4981680;28;88979;-73
2023/05/25 09:30:08;;;;;;;3.85;1.73;;;26.20;49.70;26.60;101466.00;;;;4974449;28;88145;-73
2023/05/25 09:32:34;;;;;;;2.75;1.50;;;26.30;49.40;26.70;101468.00;;;;4981747;27;109747;-78
2023/05/25 09:35:12;;;;;;;1.13;0.93;;;26.40;49.00;26.90;101461.00;;;;4987726;28;90250;-74
2023/05/25 09:37:39;;;;;;;1.58;1.35;;;26.50;48.40;27.00;101461.00;;;;4996746;27;97617;-76
2023/05/25 09:40:07;;;;;;;3.25;1.45;;;26.60;47.90;27.00;101460.00;;;;4974115;28;88054;-74
2023/05/25 09:42:32;;;;;;;1.98;1.30;;;26.70;47.40;26.90;101465.00;;;;4983350;28;87913;-74
2023/05/25 09:44:59;;;;;;;2.40;1.77;;;26.60;47.30;27.00;101471.00;;;;4983529;28;95653;-75
2023/05/25 09:47:28;;;;;;;1.52;1.38;;;26.70;46.80;26.90;101472.00;;;;4987545;28;88161;-74
2023/05/25 09:49:57;;;;;;;1.58;1.13;;;26.60;46.30;26.90;101469.00;;;;4988313;28;106942;-77
2023/05/25 09:52:23;;;;;;;2.33;0.80;;;26.60;46.60;27.10;101474.00;;;;4985388;28;97703;-77
2023/05/25 09:54:50;;;;;;;0.95;0.88;;;26.70;46.60;27.40;101467.00;;;;4985965;27;98051;-74
2023/05/25 09:57:19;;;;;;;3.03;1.58;;;26.90;45.90;27.50;101480.00;;;;4982862;27;103388;-75
2023/05/25 09:59:45;;;;;;;3.00;1.45;;;27.10;45.70;27.70;101478.00;;;;4966447;28;87892;-75
2023/05/25 10:02:13;;;;;;;1.88;1.58;;;27.20;45.20;27.90;101475.00;;;;4986359;28;88144;-74
2023/05/25 10:04:38;;;;;;;2.55;1.52;;;27.40;43.90;28.10;101477.00;;;;4980058;28;88251;-78
2023/05/25 10:07:06;;;;;;;2.08;1.27;;;27.60;43.20;28.10;101484.00;;;;4977859;28;109461;-78
2023/05/25 10:09:39;;;;;;;1.50;1.40;;;27.60;43.00;28.10;101483.00;;;;4986118;28;87290;-75
2023/05/25 10:12:06;;;;;;;2.95;1.17;;;27.70;43.30;28.30;101484.00;;;;4979917;28;90297;-77
2023/05/25 10:14:35;;;;;;;1.83;1.10;;;27.80;43.30;28.40;101468.00;;;;4979609;27;88121;-76
2023/05/25 10:17:07;;;;;;;1.83;1.42;;;27.90;42.80;28.50;101479.00;;;;4978078;28;99856;-76
2023/05/25 10:19:45;;;;;;;2.47;1.40;;;27.90;41.70;28.50;101474.00;;;;4979658;28;88268;-77
2023/05/25 10:22:32;;;;;;;2.90;1.65;;;27.90;42.30;28.80;101469.00;;;;4982775;28;102491;-76
2023/05/25 10:25:16;;;;;;;1.80;1.25;;;28.10;42.00;28.80;101476.00;;;;4984924;27;88573;-75
2023/05/25 10:27:57;;;;;;;2.20;1.20;;;28.20;41.20;28.80;101479.00;;;;4984761;28;103448;-79
2023/05/25 10:30:26;;;;;;;3.95;1.15;;;28.20;41.10;29.00;101481.00;;;;4962196;28;88146;-76
2023/05/25 10:32:55;;;;;;;1.40;0.98;;;28.30;41.00;29.20;101478.00;;;;4978423;28;87909;-75
2023/05/25 10:35:22;;;;;;;2.28;0.88;;;28.50;40.70;29.30;101476.00;;;;4979183;28;89778;-75
2023/05/25 10:37:52;;;;;;;1.95;0.77;;;28.60;39.30;29.40;101475.00;;;;4980378;28;91320;-76
2023/05/25 10:40:21;;;;;;;2.88;1.42;;;28.70;39.40;29.60;101476.00;;;;4979762;28;97455;-77
2023/05/25 10:42:48;;;;;;;1.92;1.60;;;28.90;39.40;29.80;101474.00;;;;4976517;28;88917;-76
2023/05/25 10:45:15;;;;;;;1.90;1.20;;;29.10;39.20;30.20;101471.00;;;;4981266;28;104454;-77
2023/05/25 10:47:41;;;;;;;2.28;1.70;;;29.30;39.20;30.50;101476.00;;;;4980511;28;88261;-76
2023/05/25 10:50:23;;;;;;;4.05;1.58;;;29.60;39.20;30.80;101477.00;;;;4981415;28;87598;-74
2023/05/25 10:53:05;;;;;;;1.60;1.30;;;30.00;38.70;30.70;101475.00;;;;4983774;27;88194;-76